createdAt,value
2023-01-17T14:20:39.848Z,7.6
2023-01-17T14:22:40.278Z,7.76
2023-01-17T14:25:39.867Z,7.98
2023-01-17T14:28:53.348Z,8.22
2023-01-17T14:34:40.366Z,8.68
2023-01-17T14:37:40.433Z,8.72
2023-01-17T14:40:46.865Z,8.96
2023-01-17T14:45:39.868Z,9.27
2023-01-17T14:48:39.872Z,9.39
2023-01-17T14:50:45.515Z,9.45
2023-01-17T14:52:46.611Z,9.56
2023-01-17T14:56:54.074Z,9.79
2023-01-17T15:00:53.161Z,9.93
2023-01-17T15:04:52.997Z,9.99
2023-01-17T15:07:46.418Z,9.97
2023-01-17T15:09:46.890Z,9.93
2023-01-17T15:11:47.054Z,9.91
2023-01-17T15:14:46.815Z,9.89
2023-01-17T15:16:47.122Z,9.89
2023-01-17T15:19:46.436Z,9.88
2023-01-17T15:21:46.810Z,9.85
2023-01-17T15:24:46.837Z,9.84
2023-01-17T15:26:47.128Z,9.93
2023-01-17T15:29:47.104Z,10
2023-01-17T15:32:39.884Z,10.08
2023-01-17T15:34:40.537Z,10.06
2023-01-17T15:37:39.900Z,10.04
2023-01-17T15:39:46.442Z,10.03
2023-01-17T15:41:46.779Z,9.97
2023-01-17T15:43:53.010Z,9.91
2023-01-17T15:46:46.385Z,9.82
2023-01-17T15:49:59.764Z,9.84
2023-01-17T15:52:46.429Z,9.83
2023-01-17T15:55:39.963Z,9.8
2023-01-17T15:57:40.366Z,9.81
2023-01-17T16:00:39.825Z,9.74
2023-01-17T16:02:46.481Z,9.71
2023-01-17T16:06:53.099Z,9.74
2023-01-17T16:09:46.949Z,9.8
2023-01-17T16:13:53.621Z,9.72
2023-01-17T16:16:47.033Z,9.68
2023-01-17T16:19:46.405Z,9.66
2023-01-17T16:22:47.314Z,9.64
2023-01-17T16:24:47.317Z,9.63
2023-01-17T16:27:39.860Z,9.58
2023-01-17T16:29:41.973Z,9.63
2023-01-17T16:33:38.917Z,9.74
2023-01-17T16:35:46.428Z,9.79
2023-01-17T16:38:39.842Z,9.85
2023-01-17T16:41:39.898Z,9.66
2023-01-17T16:43:40.599Z,9.39
2023-01-17T16:45:46.750Z,9.09
2023-01-17T16:48:40.151Z,9.05
2023-01-17T16:51:39.861Z,9.1
2023-01-17T16:54:46.487Z,9.16
2023-01-17T16:56:46.573Z,9.28
2023-01-17T16:58:53.213Z,9.32
2023-01-17T17:01:46.753Z,9.35
2023-01-17T17:03:53.525Z,9.43
2023-01-17T17:06:38.925Z,9.46
2023-01-17T17:08:46.424Z,9.45
2023-01-17T17:12:39.821Z,9.5
2023-01-17T17:17:47.106Z,9.47
2023-01-17T17:21:39.864Z,9.42
2023-01-17T17:25:38.922Z,9.37
2023-01-17T17:27:38.919Z,9.35
2023-01-17T17:29:46.812Z,9.32
2023-01-17T17:32:53.219Z,9.3
2023-01-17T17:35:46.661Z,9.28
2023-01-17T17:37:46.934Z,9.28
2023-01-17T17:40:40.721Z,9.29
2023-01-17T17:44:40.201Z,9.34
2023-01-17T17:47:53.250Z,9.38
2023-01-17T17:50:46.988Z,9.38
2023-01-17T17:53:46.860Z,9.32
2023-01-17T19:06:16.251Z,9.17
2023-01-17T19:08:37.061Z,9.14
2023-01-17T19:10:37.332Z,9.09
2023-01-17T19:16:39.634Z,8.99
2023-01-17T19:19:39.637Z,9.05
2023-01-17T19:22:45.963Z,9.09
2023-01-17T19:24:46.096Z,9.07
2023-01-17T19:28:39.430Z,9.04
2023-01-17T19:31:45.702Z,8.93
2023-01-17T19:33:45.784Z,8.89
2023-01-17T19:36:39.065Z,8.92
2023-01-17T19:39:39.062Z,9.06
2023-01-17T19:42:52.407Z,9.1
2023-01-17T19:45:45.728Z,9.1
2023-01-17T19:48:58.757Z,9.09
2023-01-17T19:51:46.161Z,9.07
2023-01-17T19:54:39.132Z,9.08
2023-01-17T19:57:39.082Z,9.06
2023-01-17T19:59:39.211Z,9.08
2023-01-17T20:02:46.257Z,9.05
2023-01-17T20:05:39.158Z,9.01
2023-01-17T20:07:39.250Z,9.03
2023-01-17T20:10:39.398Z,8.97
2023-01-17T20:12:39.544Z,8.87
2023-01-17T20:15:39.082Z,8.75
2023-01-17T20:18:39.250Z,8.71
2023-01-17T20:22:39.880Z,8.72
2023-01-17T20:24:39.970Z,8.74
2023-01-17T20:27:39.396Z,8.81
2023-01-17T20:30:39.056Z,8.85
2023-01-17T20:35:39.013Z,8.93
2023-01-17T20:37:39.058Z,8.97
2023-01-17T20:39:44.714Z,9.01
2023-01-17T20:41:45.634Z,9.02
2023-01-17T20:44:39.057Z,9.04
2023-01-17T20:47:39.061Z,9.02
2023-01-17T20:49:39.824Z,8.99
2023-01-17T20:52:45.657Z,9
2023-01-17T20:55:39.057Z,9.01
2023-01-17T20:57:39.609Z,9.03
2023-01-17T20:59:39.886Z,9.06
2023-01-17T21:02:39.203Z,9.13
2023-01-17T21:04:40.272Z,9.13
2023-01-17T21:07:39.388Z,9.24
2023-01-17T21:09:39.543Z,9.29
2023-01-17T21:11:39.865Z,9.24
2023-01-17T21:14:39.233Z,9.22
2023-01-17T21:16:39.856Z,9.22
2023-01-17T21:19:39.061Z,9.21
2023-01-17T21:21:39.056Z,9.2
2023-01-17T21:24:39.126Z,9.17
2023-01-17T21:27:39.079Z,9.14
2023-01-17T21:29:39.539Z,9.14
2023-01-17T21:32:39.271Z,9.12
2023-01-17T21:35:39.832Z,9.17
2023-01-17T21:38:39.113Z,9.25
2023-01-17T21:40:39.374Z,9.29
2023-01-17T21:43:39.053Z,9.32
2023-01-17T21:45:39.080Z,9.34
2023-01-17T21:48:39.582Z,9.34
2023-01-17T21:51:39.018Z,9.33
2023-01-17T21:53:39.075Z,9.3
2023-01-17T21:55:39.798Z,9.32
2023-01-17T21:57:39.965Z,9.29
2023-01-17T22:01:40.014Z,9.17
2023-01-17T22:03:46.359Z,9.13
2023-01-17T22:07:52.219Z,9.24
2023-01-17T22:10:45.639Z,9.29
2023-01-17T22:13:39.126Z,9.37
2023-01-17T22:15:39.918Z,9.39
2023-01-17T22:18:39.098Z,9.42
2023-01-17T22:21:39.040Z,9.42
2023-01-17T22:25:39.080Z,9.42
2023-01-17T22:27:45.757Z,9.39
2023-01-17T22:31:39.067Z,9.31
2023-01-17T22:33:39.161Z,9.29
2023-01-17T22:36:35.318Z,9.22
2023-01-17T22:38:39.264Z,9.22
2023-01-17T22:41:39.059Z,9.25
2023-01-17T22:43:39.063Z,9.28
2023-01-17T22:46:39.254Z,9.34
2023-01-17T22:48:39.815Z,9.35
2023-01-17T22:51:39.314Z,9.39
2023-01-17T22:54:39.056Z,9.45
2023-01-17T22:56:39.127Z,9.46
2023-01-17T22:59:39.130Z,9.38
2023-01-17T23:01:39.745Z,9.35
2023-01-17T23:10:39.048Z,9.22
2023-01-17T23:12:40.065Z,9.22
2023-01-17T23:15:39.128Z,9.24
2023-01-17T23:17:39.726Z,9.24
2023-01-17T23:20:39.066Z,9.26
2023-01-17T23:22:39.659Z,9.29
2023-01-17T23:25:45.669Z,9.32
2023-01-17T23:27:46.248Z,9.27
2023-01-17T23:30:39.865Z,9.24
2023-01-17T23:33:39.563Z,9.08
2023-01-17T23:36:46.215Z,9.13
2023-01-17T23:40:52.283Z,9.14
2023-01-17T23:43:45.605Z,9.14
2023-01-17T23:46:39.121Z,9.1
2023-01-17T23:50:39.066Z,9.1
2023-01-17T23:52:46.124Z,9.12
2023-01-17T23:56:39.051Z,9.22
2023-01-17T23:59:39.297Z,9.29
